Terminal Aerodrome Forecast
Issued by NWS Quad Cities IA IL

Home | Current Version | Previous Version | Text Only | Print | Product List | Glossary On
Versions: 1 2 3 4 5 6 7 8 9 10 11 12 13 14 15 16 17 18
000
FTUS43 KDVN 191100
TAFDBQ
TAF
KDBQ 191120Z 1912/2012 23008KT P6SM BKN060
     FM191300 29013KT P6SM BKN035
     FM191500 30019G27KT P6SM -SHSN BKN020
     FM200000 28010G17KT P6SM BKN025=

USA.gov is the U.S. government's official web portal to all federal, state and local government web resources and services.